مكة, Saudi Arabia

11:44 PM AST on أعس×س 30, 2016 (GMT +0300)
Makkah | | Change Station

Elev 1211 ft 21.44 °N, 40.00 °E | Updated 44 minutes ago

Clear
صافية
91 °F
Feels Like 111 °F
N
7
ريح متغير ريح from SSW

هذا اليوم
High -- | Low -- °F
--% Chance of Precip.
Yesterday
High -- | Low -- °F
Precip. -- في
الضغط 29.71 في
وضوح الرؤية -9999.0 أميال
سحابات
مؤشر الحرارة 111 °F
نقطة الندى 81 °F
الرطوبة 71%
Rainfall 0.00 في
عمق الثلج Not available.
6:03 AM 6:38 PM
الهلال الأخير, 2% visible
METAR OEMK 302000Z 21006KT CAVOK 33/27 Q1006
الضغط 29.71 في
وضوح الرؤية -9999.0 أميال
سحابات
مؤشر الحرارة 111 °F
نقطة الندى 81 °F
الرطوبة 71%
Rainfall 0.00 في
عمق الثلج Not available.
6:03 AM 6:38 PM
الهلال الأخير, 2% visible
METAR OEMK 302000Z 21006KT CAVOK 33/27 Q1006

10-Day Weather Forecast

No radar image for this location.
×

Almanac

علم الفلك

Aug. 30, 2016 Rise Set
Actual Time
Civil Twilight
Nautical Twilight
Astronomical Twilight
قمر
Length Of Visible Light
طول الیوم
Tomorrow will be .
, % of the Moon is Illuminated

Today's Extremes

Country Highs Country Lows

Community

WunderPhotos

Upload Photos

1,935,889 photos uploaded!

WunderBlog® & News

Nearby

جودة الهواء

  جودة الهواء AQ Index Pollutant
Not available.

عمق الثلج

Station Depth Elevation

Earthquake Activity

City Distance Mag. Time & Date
Minimum magnitude displayed is 2.5.

Coastal Water Temperatures

مكان درجات الحرارة

Stations

Nearby Weather Stations

Station Location الحرارة رياح باردة نقطة الندى الرطوبة ريح Precip. Elev تحديث Type